Time;durP1;ratioP1;P1;durP2;ratioP2;P2;SDS_P1;SDS_P2;PMS_P1;PMS_P2;Temp;Humidity;BMP_temperature;BMP_pressure;BME280_temperature;BME280_humidity;BME280_pressure;Samples;Min_cycle;Max_cycle;Signal;HPM_P1;HPM_P2
2022/04/21 00:01:10;;;;;;;234.67;108.85;;;;;;;4.68;100.00;98486.07;1722821;81;21272;-69
2022/04/21 00:03:37;;;;;;;111.40;55.10;;;;;;;4.68;100.00;98482.08;1708968;81;21063;-69
2022/04/21 00:06:05;;;;;;;151.55;70.75;;;;;;;4.69;100.00;98486.87;1729559;80;20937;-69
2022/04/21 00:08:32;;;;;;;315.27;134.37;;;;;;;4.69;100.00;98484.21;1726715;80;21183;-70
2022/04/21 00:11:00;;;;;;;142.15;61.15;;;;;;;4.67;100.00;98483.11;1787473;78;21057;-69
2022/04/21 00:13:30;;;;;;;67.60;36.10;;;;;;;4.68;100.00;98482.08;1801205;78;21996;-70
2022/04/21 00:15:57;;;;;;;161.62;72.03;;;;;;;4.69;100.00;98481.55;1796140;78;21018;-69
2022/04/21 00:18:26;;;;;;;186.03;75.97;;;;;;;4.69;100.00;98485.01;1786420;78;21033;-71
2022/04/21 00:20:57;;;;;;;207.77;93.85;;;;;;;4.66;100.00;98481.52;1731282;81;21039;-69
2022/04/21 00:23:29;;;;;;;304.63;134.37;;;;;;;4.65;100.00;98478.55;1776515;79;21688;-67
2022/04/21 00:26:00;;;;;;;166.62;77.60;;;;;;;4.65;100.00;98479.88;1743935;81;21573;-69
2022/04/21 00:28:32;;;;;;;175.95;86.05;;;;;;;4.64;100.00;98470.84;1790775;78;21516;-70
2022/04/21 00:30:58;;;;;;;113.45;94.42;;;;;;;4.63;100.00;98466.55;1784379;78;21085;-69
2022/04/21 00:33:24;;;;;;;122.35;101.40;;;;;;;4.62;100.00;98466.28;1787614;78;20974;-68
2022/04/21 00:35:52;;;;;;;142.25;124.58;;;;;;;4.62;100.00;98460.97;1787565;78;21259;-69
2022/04/21 00:38:21;;;;;;;255.90;188.27;;;;;;;4.61;100.00;98462.03;1775601;79;20983;-68
2022/04/21 00:40:50;;;;;;;286.90;138.18;;;;;;;4.60;100.00;98463.86;1761201;79;20913;-69
2022/04/21 00:43:19;;;;;;;256.07;115.55;;;;;;;4.59;100.00;98462.26;1736113;81;20911;-69
2022/04/21 00:45:49;;;;;;;524.08;257.43;;;;;;;4.58;100.00;98456.67;1736930;81;21083;-68
2022/04/21 00:48:15;;;;;;;455.20;205.15;;;;;;;4.58;100.00;98458.50;1721596;81;20949;-69
2022/04/21 00:50:42;;;;;;;369.82;196.00;;;;;;;4.56;100.00;98461.92;1749123;81;21224;-68
2022/04/21 00:53:10;;;;;;;328.87;185.00;;;;;;;4.56;100.00;98461.92;1739694;81;21529;-68
2022/04/21 00:55:38;;;;;;;73.70;41.18;;;;;;;4.53;100.00;98461.87;1731622;81;21254;-69
2022/04/21 00:58:06;;;;;;;51.68;31.15;;;;;;;4.51;100.00;98460.81;1737541;81;20944;-69
2022/04/21 01:00:33;;;;;;;26.62;17.77;;;;;;;4.51;100.00;98460.81;1727600;81;20943;-70
2022/04/21 01:03:02;;;;;;;;;;;;;;;4.50;100.00;98456.52;1742774;81;20949;-68
2022/04/21 01:05:31;;;;;;;79.25;54.42;;;;;;;4.50;100.00;98457.05;1737154;80;20126;-70
2022/04/21 01:08:04;;;;;;;55.88;40.60;;;;;;;4.48;100.00;98454.66;1737303;81;20983;-69
2022/04/21 01:10:35;;;;;;;35.00;25.62;;;;;;;4.47;100.00;98456.21;1742211;81;20976;-69
2022/04/21 01:13:08;;;;;;;31.82;25.17;;;;;;;4.46;100.00;98451.43;1779182;80;20984;-70
2022/04/21 01:15:37;;;;;;;60.23;48.45;;;;;;;4.46;100.00;98448.77;1770643;79;21756;-69
2022/04/21 01:18:06;;;;;;;86.85;58.75;;;;;;;4.45;100.00;98439.70;1785077;78;21399;-69
2022/04/21 01:20:34;;;;;;;113.60;69.70;;;;;;;4.45;100.00;98443.69;1762561;80;21534;-70
2022/04/21 01:23:02;;;;;;;119.45;75.80;;;;;;;4.43;100.00;98441.78;1762128;80;21019;-66
2022/04/21 01:25:42;;;;;;;74.05;48.83;;;;;;;4.42;100.00;98437.00;1750365;80;20913;-68
2022/04/21 01:28:10;;;;;;;38.20;25.23;;;;;;;4.42;100.00;98437.00;1764568;80;21661;-68
2022/04/21 01:30:38;;;;;;;31.30;20.93;;;;;;;4.41;100.00;98438.56;1758735;80;20989;-68
2022/04/21 01:33:08;;;;;;;25.43;19.17;;;;;;;4.42;100.00;98442.31;1724082;80;21059;-68
2022/04/21 01:35:37;;;;;;;20.12;15.18;;;;;;;4.41;100.00;98432.75;1751594;80;21012;-69
2022/04/21 01:41:11;;;;;;;21.15;13.68;;;;;;;4.40;100.00;98428.46;1764736;80;20971;-67
2022/04/21 01:43:43;;;;;;;51.77;30.23;;;;;;;4.39;100.00;98424.73;1730172;79;21036;-67
2022/04/21 01:46:11;;;;;;;22.37;15.65;;;;;;;4.38;100.00;98426.56;1749896;80;20924;-68
2022/04/21 01:48:39;;;;;;;20.87;16.17;;;;;;;4.36;100.00;98426.03;1764097;80;20985;-69
2022/04/21 01:51:07;;;;;;;18.92;14.68;;;;;;;4.37;100.00;98426.30;1758591;80;21013;-67
2022/04/21 01:53:34;;;;;;;80.77;44.05;;;;;;;4.35;100.00;98420.41;1748018;80;21554;-65
2022/04/21 01:56:01;;;;;;;67.95;34.40;;;;;;;4.35;100.00;98423.06;1755606;79;21062;-69
2022/04/21 01:58:29;;;;;;;19.65;15.13;;;;;;;4.35;100.00;98423.59;1747988;80;21515;-67
2022/04/21 02:00:57;;;;;;;41.93;23.17;;;;;;;4.33;100.00;98425.16;1758247;80;21092;-68
2022/04/21 02:03:23;;;;;;;81.57;42.30;;;;;;;4.33;100.00;98423.83;1752262;80;21809;-67
2022/04/21 02:05:52;;;;;;;51.37;30.95;;;;;;;4.33;100.00;98419.05;1769376;80;22517;-68
2022/04/21 02:08:18;;;;;;;102.62;55.78;;;;;;;4.32;100.00;98424.09;1747789;80;20975;-67
2022/04/21 02:10:47;;;;;;;56.08;35.00;;;;;;;4.32;100.00;98420.10;1749734;80;26333;-67
2022/04/21 02:13:14;;;;;;;167.75;85.80;;;;;;;4.32;100.00;98416.12;1756604;80;20979;-68
2022/04/21 02:15:42;;;;;;;97.53;50.17;;;;;;;4.31;100.00;98413.96;1755219;79;21395;-70
2022/04/21 02:18:09;;;;;;;67.50;37.10;;;;;;;4.33;100.00;98417.19;1752859;79;21391;-69
2022/04/21 02:20:36;;;;;;;75.35;37.05;;;;;;;4.33;100.00;98410.55;1756652;79;20896;-69
2022/04/21 02:23:03;;;;;;;31.07;20.23;;;;;;;4.34;100.00;98411.38;1750505;80;21019;-68
2022/04/21 02:25:31;;;;;;;72.62;39.50;;;;;;;4.33;100.00;98411.88;1754607;80;21546;-69
2022/04/21 02:27:58;;;;;;;115.03;53.98;;;;;;;4.35;100.00;98411.11;1752956;80;21055;-68
2022/04/21 02:30:26;;;;;;;79.65;43.05;;;;;;;4.34;100.00;98410.84;1766690;79;21811;-69
2022/04/21 02:32:54;;;;;;;115.00;57.67;;;;;;;4.35;100.00;98408.98;1787272;78;21073;-68
2022/04/21 02:35:21;;;;;;;116.03;54.93;;;;;;;4.34;100.00;98410.05;1791017;78;21161;-68
2022/04/21 02:37:48;;;;;;;107.67;51.42;;;;;;;4.33;100.00;98403.91;1780530;78;20979;-67
2022/04/21 02:40:15;;;;;;;86.10;45.38;;;;;;;4.32;100.00;98404.96;1791538;78;20952;-69
2022/04/21 02:42:42;;;;;;;37.93;22.45;;;;;;;4.33;100.00;98401.78;1798129;78;21179;-68
2022/04/21 02:45:12;;;;;;;59.45;32.67;;;;;;;4.31;100.00;98400.67;1790685;78;20885;-69
2022/04/21 02:47:44;;;;;;;80.47;46.42;;;;;;;4.30;100.00;98399.08;1800931;78;20907;-69
2022/04/21 02:50:14;;;;;;;38.55;23.98;;;;;;;4.29;100.00;98394.83;1795316;78;20923;-69
2022/04/21 02:52:43;;;;;;;54.55;35.35;;;;;;;4.27;100.00;98395.05;1737348;80;20963;-69
2022/04/21 02:57:56;;;;;;;21.52;16.75;;;;;;;4.27;100.00;98392.92;1747589;81;21037;-68
2022/04/21 03:00:23;;;;;;;18.85;15.38;;;;;;;4.27;100.00;98395.59;1754437;81;21064;-69
2022/04/21 03:02:50;;;;;;;22.10;16.48;;;;;;;4.27;100.00;98400.90;1743299;80;21006;-69
2022/04/21 03:05:16;;;;;;;23.57;16.37;;;;;;;4.26;100.00;98395.28;1743358;81;21541;-68
2022/04/21 03:07:45;;;;;;;26.17;19.75;;;;;;;4.27;100.00;98402.22;1740933;80;25056;-69
2022/04/21 03:10:13;;;;;;;133.57;76.90;;;;;;;4.26;100.00;98397.44;1750744;81;26911;-68
2022/04/21 03:12:42;;;;;;;89.42;54.08;;;;;;;4.26;100.00;98398.77;1746144;80;20893;-68
2022/04/21 03:15:11;;;;;;;36.35;24.32;;;;;;;4.27;100.00;98404.88;1762428;81;21158;-68
2022/04/21 03:17:42;;;;;;;37.67;23.02;;;;;;;4.26;100.00;98398.77;1738444;81;21011;-67
2022/04/21 03:24:18;;;;;;;34.03;24.90;;;;;;;4.28;100.00;98402.50;1738301;80;21179;-68
2022/04/21 03:25:30;;;;;;;83.12;45.55;;;;;;;4.28;100.00;98403.82;1772118;78;20903;-67
2022/04/21 03:27:57;;;;;;;82.08;47.13;;;;;;;4.27;100.00;98399.56;1798839;78;20907;-68
2022/04/21 03:30:24;;;;;;;49.73;29.72;;;;;;;4.27;100.00;98402.22;1796325;78;20953;-67
2022/04/21 03:32:52;;;;;;;40.12;24.15;;;;;;;4.27;100.00;98398.24;1796121;78;21191;-67
2022/04/21 03:35:19;;;;;;;170.85;76.87;;;;;;;4.26;100.00;98400.09;1782307;78;20884;-67
2022/04/21 03:37:46;;;;;;;163.12;76.00;;;;;;;4.27;100.00;98404.35;1796456;78;20921;-69
2022/04/21 03:40:14;;;;;;;74.17;39.30;;;;;;;4.28;100.00;98402.50;1739358;81;21193;-68
2022/04/21 03:42:40;;;;;;;86.78;41.23;;;;;;;4.29;100.00;98401.47;1774334;79;21050;-67
2022/04/21 03:45:09;;;;;;;32.95;22.37;;;;;;;4.29;100.00;98400.94;1793041;78;21596;-67
2022/04/21 03:47:39;;;;;;;109.27;54.25;;;;;;;4.30;100.00;98401.73;1790823;78;21066;-69
2022/04/21 03:50:08;;;;;;;219.72;104.43;;;;;;;4.32;100.00;98406.29;1800911;78;21558;-69
2022/04/21 03:52:35;;;;;;;109.85;55.40;;;;;;;4.33;100.00;98402.58;1800887;78;20957;-68
2022/04/21 03:55:02;;;;;;;155.52;67.82;;;;;;;4.34;100.00;98405.53;1799579;78;20980;-67
2022/04/21 03:57:29;;;;;;;49.15;28.40;;;;;;;4.37;100.00;98406.90;1786356;78;21196;-69
2022/04/21 03:59:56;;;;;;;131.78;56.25;;;;;;;4.39;100.00;98408.80;1790751;78;21021;-70
2022/04/21 04:02:22;;;;;;;120.37;51.68;;;;;;;4.40;100.00;98409.06;1769653;79;20961;-69
2022/04/21 04:04:51;;;;;;;306.75;125.70;;;;;;;4.41;100.00;98400.87;1789000;78;20892;-67
2022/04/21 04:12:52;;;;;;;45.10;31.73;;;;;;;4.50;100.00;98399.39;1788016;78;20844;-69
2022/04/21 04:15:21;;;;;;;34.08;25.30;;;;;;;4.56;100.00;98396.81;1759927;79;21458;-69
2022/04/21 04:17:48;;;;;;;;;;;;;;;4.60;100.00;98398.74;1800406;78;20938;-69
2022/04/21 04:20:14;;;;;;;33.50;20.25;;;;;;;4.64;100.00;98405.72;1790158;78;20281;-68
2022/04/21 04:22:43;;;;;;;36.33;23.07;;;;;;;4.68;100.00;98398.88;1792000;78;21034;-67
2022/04/21 04:25:11;;;;;;;56.73;34.05;;;;;;;4.67;100.00;98409.22;1779264;78;25148;-67
2022/04/21 04:27:39;;;;;;;87.05;46.35;;;;;;;4.69;100.00;98405.80;1797990;78;20862;-64
2022/04/21 04:30:08;;;;;;;34.43;22.73;;;;;;;4.70;100.00;98400.75;1801400;78;21022;-66
2022/04/21 04:32:36;;;;;;;69.82;41.25;;;;;;;4.72;100.00;98401.31;1806694;78;20905;-66
2022/04/21 04:35:05;;;;;;;26.97;20.57;;;;;;;4.72;100.00;98400.78;1793499;78;21623;-67
2022/04/21 04:37:33;;;;;;;29.57;21.30;;;;;;;4.73;100.00;98402.41;1778768;80;20925;-67
2022/04/21 04:40:00;;;;;;;31.02;22.52;;;;;;;4.73;100.00;98403.73;1772609;79;20955;-67
2022/04/21 04:42:28;;;;;;;32.23;22.70;;;;;;;4.73;100.00;98402.94;1784771;78;20915;-64
2022/04/21 04:47:40;;;;;;;24.75;18.40;;;;;;;4.72;100.00;98410.09;1769955;78;21059;-66
2022/04/21 04:50:08;;;;;;;25.75;18.50;;;;;;;4.70;100.00;98409.55;1779794;78;21102;-67
2022/04/21 04:52:35;;;;;;;;;;;;;;;4.69;100.00;98410.58;1794179;78;20987;-69
2022/04/21 04:55:03;;;;;;;74.25;41.70;;;;;;;4.68;100.00;98406.86;1796713;78;20122;-66
2022/04/21 04:57:31;;;;;;;31.02;21.00;;;;;;;4.67;100.00;98412.67;1799852;78;21640;-67
2022/04/21 04:59:58;;;;;;;26.42;19.02;;;;;;;4.68;100.00;98412.97;1767299;79;21207;-67
2022/04/21 05:02:26;;;;;;;35.90;24.70;;;;;;;4.70;100.00;98406.89;1771829;79;25204;-66
2022/04/21 05:04:54;;;;;;;28.10;19.82;;;;;;;4.70;100.00;98408.72;1770920;79;21442;-67
2022/04/21 05:07:21;;;;;;;81.90;49.20;;;;;;;4.71;100.00;98403.70;1767524;80;21423;-67
2022/04/21 05:09:49;;;;;;;52.98;33.42;;;;;;;4.70;100.00;98399.42;1743056;81;20877;-67
2022/04/21 05:12:18;;;;;;;147.57;80.47;;;;;;;4.72;100.00;98408.76;1742561;80;21477;-68
2022/04/21 05:14:48;;;;;;;48.68;31.05;;;;;;;4.73;100.00;98410.38;1737779;81;20940;-67
2022/04/21 05:17:16;;;;;;;34.78;21.25;;;;;;;4.74;100.00;98421.81;1798363;78;20946;-66
2022/04/21 05:19:45;;;;;;;101.10;51.83;;;;;;;4.73;100.00;98420.22;1802009;78;20885;-66
2022/04/21 05:22:14;;;;;;;51.73;31.02;;;;;;;4.75;100.00;98419.42;1748711;80;20963;-66
2022/04/21 05:24:40;;;;;;;139.47;62.40;;;;;;;4.79;100.00;98422.42;1772415;80;21172;-66
2022/04/21 05:27:10;;;;;;;93.12;43.83;;;;;;;4.83;100.00;98423.55;1747359;81;20888;-66
2022/04/21 05:32:28;;;;;;;188.43;83.40;;;;;;;4.85;100.00;98428.08;1747323;81;20924;-66
2022/04/21 05:34:56;;;;;;;27.35;19.30;;;;;;;4.88;100.00;98425.75;1745410;80;21553;-66
2022/04/21 05:37:23;;;;;;;61.37;37.33;;;;;;;4.88;100.00;98434.26;1740957;81;21098;-66
2022/04/21 05:39:51;;;;;;;59.85;35.38;;;;;;;4.87;100.00;98428.11;1741680;81;20901;-66
2022/04/21 05:42:23;;;;;;;33.00;19.90;;;;;;;4.88;100.00;98428.41;1745214;81;21078;-66
2022/04/21 05:44:54;;;;;;;26.40;20.77;;;;;;;4.89;100.00;98423.89;1737483;81;21000;-67
2022/04/21 05:47:22;;;;;;;30.20;19.85;;;;;;;4.91;100.00;98418.61;1734888;81;21120;-66
2022/04/21 05:49:50;;;;;;;;;;;;;;;4.93;100.00;98426.35;1752375;81;21874;-67
2022/04/21 05:52:17;;;;;;;27.85;19.07;;;;;;;4.96;100.00;98423.73;1744961;81;20118;-65
2022/04/21 05:54:45;;;;;;;24.65;18.67;;;;;;;4.95;100.00;98424.27;1745024;81;20941;-68
2022/04/21 05:57:12;;;;;;;36.53;26.30;;;;;;;4.94;100.00;98423.96;1747706;81;21435;-68
2022/04/21 05:59:40;;;;;;;24.98;19.23;;;;;;;4.97;100.00;98426.66;1731956;81;27030;-66
2022/04/21 06:02:09;;;;;;;40.33;28.57;;;;;;;5.00;100.00;98419.52;1730409;81;20988;-68
2022/04/21 06:04:36;;;;;;;40.90;28.00;;;;;;;5.02;100.00;98422.23;1732027;81;21427;-67
2022/04/21 06:07:03;;;;;;;32.28;23.02;;;;;;;5.06;100.00;98417.22;1730087;81;20860;-67
2022/04/21 06:09:30;;;;;;;47.80;30.77;;;;;;;5.15;100.00;98419.21;1737383;81;20980;-67
2022/04/21 06:11:58;;;;;;;34.10;22.87;;;;;;;5.26;100.00;98417.47;1743535;81;20996;-67
2022/04/21 06:14:26;;;;;;;34.30;23.95;;;;;;;5.28;100.00;98414.05;1724920;81;21080;-67
2022/04/21 06:16:53;;;;;;;36.93;23.87;;;;;;;5.30;100.00;98415.14;1752088;81;20956;-67
2022/04/21 06:19:21;;;;;;;27.65;21.25;;;;;;;5.26;100.00;98422.00;1731910;81;21447;-65
2022/04/21 06:21:48;;;;;;;29.52;20.57;;;;;;;5.28;100.00;98422.56;1744633;81;20919;-66
2022/04/21 06:24:15;;;;;;;28.17;20.88;;;;;;;5.25;100.00;98426.52;1735545;81;20920;-66
2022/04/21 06:26:42;;;;;;;29.12;22.37;;;;;;;5.26;100.00;98426.78;1741762;81;21113;-67
2022/04/21 06:29:09;;;;;;;42.78;31.30;;;;;;;5.27;100.00;98428.41;1743313;81;21478;-65
2022/04/21 06:31:36;;;;;;;28.98;21.95;;;;;;;5.28;100.00;98430.55;1732129;81;21019;-66
2022/04/21 06:34:05;;;;;;;37.78;25.48;;;;;;;5.27;100.00;98433.73;1737606;80;20948;-65
2022/04/21 06:36:33;;;;;;;56.28;39.25;;;;;;;5.29;100.00;98432.97;1761109;80;21475;-67
2022/04/21 06:39:03;;;;;;;39.67;26.75;;;;;;;5.29;100.00;98433.47;1753373;81;20862;-66
2022/04/21 06:41:29;;;;;;;39.50;25.32;;;;;;;5.32;100.00;98427.14;1750077;80;20931;-66
2022/04/21 06:49:28;;;;;;;33.00;24.90;;;;;;;5.40;100.00;98426.44;1752883;80;21490;-64
2022/04/21 06:51:56;;;;;;;44.53;27.10;;;;;;;5.43;100.00;98432.59;1758834;80;20896;-67
2022/04/21 06:54:22;;;;;;;30.97;22.98;;;;;;;5.42;100.00;98435.78;1761915;80;20912;-67
2022/04/21 06:56:51;;;;;;;34.05;25.77;;;;;;;5.47;100.00;98435.84;1747905;81;20944;-67
2022/04/21 06:59:18;;;;;;;33.13;24.75;;;;;;;5.51;100.00;98434.81;1750301;80;20998;-66
2022/04/21 07:01:49;;;;;;;34.27;24.27;;;;;;;5.53;100.00;98442.02;1760290;80;20924;-67
2022/04/21 07:04:15;;;;;;;43.58;31.73;;;;;;;5.51;100.00;98438.80;1753240;80;20975;-65
2022/04/21 07:06:42;;;;;;;31.15;23.92;;;;;;;5.53;100.00;98442.83;1750291;81;21580;-67
2022/04/21 07:09:10;;;;;;;35.25;25.30;;;;;;;5.64;100.00;98438.97;1779502;79;20921;-66
2022/04/21 07:11:39;;;;;;;32.75;25.35;;;;;;;5.71;100.00;98437.73;1785912;78;21365;-68
2022/04/21 07:14:06;;;;;;;30.35;23.25;;;;;;;5.88;100.00;98436.82;1785418;78;20886;-67
2022/04/21 07:16:33;;;;;;;31.30;23.40;;;;;;;5.95;100.00;98432.96;1760892;78;21765;-68
2022/04/21 07:19:01;;;;;;;35.33;24.47;;;;;;;5.97;100.00;98440.15;1798909;78;20900;-65
2022/04/21 07:21:31;;;;;;;28.02;21.73;;;;;;;5.96;100.00;98441.75;1777333;80;20877;-64
2022/04/21 07:23:58;;;;;;;;;;;;;;;6.04;100.00;98440.49;1766197;79;20960;-66
2022/04/21 07:26:25;;;;;;;42.58;32.00;;;;;;;6.03;100.00;98438.87;1765879;80;20571;-67
2022/04/21 07:28:51;;;;;;;32.35;24.45;;;;;;;6.06;100.00;98443.72;1781717;78;21085;-67
2022/04/21 07:31:19;;;;;;;30.05;23.87;;;;;;;6.17;100.00;98442.23;1773423;79;21154;-66
2022/04/21 07:33:46;;;;;;;39.40;31.05;;;;;;;6.16;100.00;98437.95;1767195;79;20939;-67
2022/04/21 07:36:13;;;;;;;31.48;22.67;;;;;;;6.23;100.00;98438.55;1735318;81;21063;-66
2022/04/21 07:38:40;;;;;;;32.08;23.70;;;;;;;6.20;100.00;98445.72;1717767;81;20987;-66
2022/04/21 07:41:07;;;;;;;35.83;26.55;;;;;;;6.19;100.00;98446.77;1733287;81;21740;-67
2022/04/21 07:43:42;;;;;;;73.20;62.60;;;;;;;6.28;100.00;98447.66;1737369;81;20971;-66
2022/04/21 07:46:06;;;;;;;26.05;21.35;;;;;;;6.38;100.00;98441.88;1731592;80;21015;-67
2022/04/21 07:51:19;;;;;;;24.07;19.20;;;;;;;6.60;100.00;98444.46;1767572;79;21185;-68
2022/04/21 07:53:47;;;;;;;21.95;17.32;;;;;;;6.69;100.00;98447.47;1769500;80;20988;-68
2022/04/21 07:56:15;;;;;;;25.15;19.00;;;;;;;6.63;100.00;98453.27;1779356;79;20881;-66
2022/04/21 07:58:41;;;;;;;23.25;17.23;;;;;;;6.54;100.00;98450.00;1768042;79;21805;-68
2022/04/21 08:01:09;;;;;;;25.37;18.98;;;;;;;6.49;100.00;98447.29;1749016;81;21004;-67
2022/04/21 08:03:43;;;;;;;21.17;17.25;;;;;;;6.41;100.00;98452.56;1722629;82;20971;-66
2022/04/21 08:06:09;;;;;;;22.85;17.65;;;;;;;6.42;100.00;98452.85;1771517;79;21362;-67
2022/04/21 08:08:40;;;;;;;23.95;19.02;;;;;;;6.37;100.00;98456.27;1758990;80;21431;-69
2022/04/21 08:11:07;;;;;;;20.92;16.82;;;;;;;6.37;100.00;98460.27;1760607;79;21102;-67
2022/04/21 08:13:36;;;;;;;26.68;21.20;;;;;;;6.42;100.00;98459.52;1767846;80;21440;-67
2022/04/21 08:16:04;;;;;;;21.73;16.80;;;;;;;6.45;100.00;98455.00;1777402;79;20914;-67
2022/04/21 08:18:32;;;;;;;22.75;17.57;;;;;;;6.51;100.00;98453.17;1770474;80;21033;-68
2022/04/21 08:20:59;;;;;;;19.85;16.67;;;;;;;6.49;100.00;98458.75;1768310;80;20952;-66
2022/04/21 08:23:26;;;;;;;19.48;16.10;;;;;;;6.40;100.00;98463.76;1756496;80;21455;-68
2022/04/21 08:34:07;;;;;;;21.70;17.10;;;;;;;6.41;100.00;98468.55;1685635;84;21174;-66
2022/04/21 08:36:34;;;;;;;20.62;14.93;;;;;;;6.46;100.00;98470.47;1677506;83;21109;-67
2022/04/21 08:39:01;;;;;;;16.67;14.87;;;;;;;6.47;100.00;98472.89;1646620;86;21054;-67
2022/04/21 08:41:30;;;;;;;19.98;15.98;;;;;;;6.46;100.00;98476.59;1688506;83;20957;-68
2022/04/21 08:43:57;;;;;;;19.27;15.90;;;;;;;6.48;100.00;98473.16;1672171;84;21853;-66
2022/04/21 08:46:25;;;;;;;21.23;16.17;;;;;;;6.49;100.00;98469.41;1677065;84;20956;-67
2022/04/21 08:48:53;;;;;;;17.27;14.20;;;;;;;6.52;100.00;98477.46;1679630;84;21066;-67
2022/04/21 08:51:23;;;;;;;18.05;14.47;;;;;;;6.55;100.00;98471.08;1680805;84;21606;-66
2022/04/21 08:53:51;;;;;;;17.15;13.68;;;;;;;6.62;100.00;98478.34;1674502;84;21550;-67
2022/04/21 08:56:22;;;;;;;18.20;12.53;;;;;;;6.73;100.00;98480.55;1687214;83;21474;-67
2022/04/21 08:58:49;;;;;;;18.55;14.10;;;;;;;6.86;100.00;98481.47;1682254;83;20999;-67
2022/04/21 09:01:19;;;;;;;16.15;13.43;;;;;;;6.96;100.00;98486.61;1678011;84;21473;-69
2022/04/21 09:03:48;;;;;;;15.50;12.65;;;;;;;7.00;100.00;98488.48;1687948;84;21035;-68
2022/04/21 09:06:16;;;;;;;17.80;14.15;;;;;;;7.00;100.00;98487.69;1722415;81;20847;-67
2022/04/21 09:08:43;;;;;;;16.27;12.58;;;;;;;6.94;100.00;98486.06;1732548;81;21028;-66
2022/04/21 09:11:15;;;;;;;17.98;14.18;;;;;;;6.89;100.00;98486.83;1762509;80;20949;-66
2022/04/21 09:13:44;;;;;;;25.50;22.42;;;;;;;6.79;100.00;98484.88;1752829;80;20956;-66
2022/04/21 09:16:20;;;;;;;21.15;14.95;;;;;;;6.73;100.00;98485.88;1720657;82;20928;-66
2022/04/21 09:18:46;;;;;;;18.73;16.60;;;;;;;6.74;100.00;98488.05;1721085;82;21008;-66
2022/04/21 09:21:16;;;;;;;17.85;14.53;;;;;;;6.72;100.00;98484.30;1733870;81;21098;-65
2022/04/21 09:23:52;;;;;;;19.37;16.32;;;;;;;6.83;100.00;98483.83;1726046;81;21658;-67
2022/04/21 09:26:21;;;;;;;20.08;16.25;;;;;;;7.00;100.00;98487.16;1725332;81;21591;-67
2022/04/21 09:28:57;;;;;;;18.77;15.80;;;;;;;7.16;100.00;98491.28;1736364;81;20957;-67
2022/04/21 09:31:26;;;;;;;21.10;14.65;;;;;;;7.32;100.00;98491.63;1733916;81;21497;-66
2022/04/21 09:33:55;;;;;;;15.28;11.30;;;;;;;7.43;100.00;98483.96;1709836;81;20997;-63
2022/04/21 09:36:23;;;;;;;14.45;11.53;;;;;;;7.41;100.00;98490.63;1741337;81;21103;-67
2022/04/21 09:39:00;;;;;;;13.22;10.70;;;;;;;7.25;100.00;98493.21;1734572;81;21547;-64
2022/04/21 09:41:30;;;;;;;13.32;10.28;;;;;;;7.27;100.00;98499.07;1741857;81;20916;-66
2022/04/21 09:46:58;;;;;;;18.67;13.03;;;;;;;7.50;100.00;98494.41;1718020;81;21569;-68
2022/04/21 09:49:41;;;;;;;14.98;12.37;;;;;;;7.66;100.00;98493.94;1726884;81;20888;-65
2022/04/21 09:52:09;;;;;;;20.20;15.30;;;;;;;7.60;100.00;98500.34;1724793;81;20939;-66
2022/04/21 09:54:36;;;;;;;24.75;17.98;;;;;;;7.53;100.00;98501.10;1742353;81;20978;-67
2022/04/21 09:57:05;;;;;;;35.03;24.40;;;;;;;7.51;100.00;98501.34;1773829;79;20937;-67
2022/04/21 09:59:35;;;;;;;31.52;21.00;;;;;;;7.43;100.00;98506.66;1769899;80;21112;-68
2022/04/21 10:02:03;;;;;;;24.30;17.80;;;;;;;7.28;100.00;98514.58;1766856;80;20941;-65
2022/04/21 10:04:30;;;;;;;22.37;16.50;;;;;;;7.15;100.00;98511.80;1760693;81;21106;-66
2022/04/21 10:06:57;;;;;;;24.95;19.60;;;;;;;7.08;100.00;98517.38;1762447;79;21027;-66
2022/04/21 10:09:24;;;;;;;29.05;21.77;;;;;;;7.00;100.00;98517.84;1761072;79;21434;-65
2022/04/21 10:11:53;;;;;;;77.53;48.48;;;;;;;6.91;100.00;98516.72;1742096;81;21202;-66
2022/04/21 10:14:21;;;;;;;44.67;29.60;;;;;;;6.90;100.00;98519.09;1751167;81;21535;-65
2022/04/21 10:16:51;;;;;;;54.58;33.18;;;;;;;6.89;100.00;98522.84;1745138;81;20923;-63
2022/04/21 10:19:19;;;;;;;68.50;37.70;;;;;;;6.89;100.00;98529.50;1742831;81;21459;-67
2022/04/21 10:21:54;;;;;;;32.45;21.62;;;;;;;6.82;100.00;98527.04;1719803;80;20923;-66
2022/04/21 10:24:23;;;;;;;22.75;17.57;;;;;;;6.71;100.00;98520.00;1780896;78;21106;-67
2022/04/21 10:26:50;;;;;;;22.77;18.60;;;;;;;6.61;100.00;98522.08;1768044;80;21024;-67
2022/04/21 10:29:22;;;;;;;20.55;16.90;;;;;;;6.57;100.00;98524.96;1752392;79;21019;-66
2022/04/21 10:32:00;;;;;;;23.80;19.98;;;;;;;6.52;100.00;98533.45;1768081;80;20885;-67
2022/04/21 10:34:46;;;;;;;24.90;19.02;;;;;;;6.47;100.00;98538.70;1797121;79;20996;-64
2022/04/21 10:37:20;;;;;;;22.82;18.17;;;;;;;6.45;100.00;98546.97;1783692;79;21763;-65
2022/04/21 10:42:57;;;;;;;26.85;19.02;;;;;;;6.42;100.00;98543.48;1763936;80;21443;-67
2022/04/21 10:45:31;;;;;;;25.37;19.85;;;;;;;6.41;100.00;98545.31;1735478;80;21458;-64
2022/04/21 10:48:09;;;;;;;25.35;18.52;;;;;;;6.35;100.00;98550.33;1751216;81;20862;-67
2022/04/21 10:50:39;;;;;;;25.23;18.62;;;;;;;6.33;100.00;98558.30;1761278;80;20842;-65
2022/04/21 10:58:47;;;;;;;25.12;18.92;;;;;;;6.28;100.00;98564.91;1733625;81;20870;-68
2022/04/21 11:01:28;;;;;;;27.13;18.95;;;;;;;6.29;100.00;98559.31;1751093;81;20983;-67
2022/04/21 11:04:10;;;;;;;30.68;21.70;;;;;;;6.31;100.00;98561.20;1719469;81;20955;-65
2022/04/21 11:06:48;;;;;;;40.28;27.10;;;;;;;6.33;100.00;98563.09;1752510;80;21532;-68
2022/04/21 11:09:36;;;;;;;26.27;19.12;;;;;;;6.35;100.00;98566.33;1749887;81;20859;-67
2022/04/21 11:12:10;;;;;;;25.72;16.90;;;;;;;6.37;100.00;98570.05;1743543;81;20941;-66
2022/04/21 11:14:39;;;;;;;24.23;16.65;;;;;;;6.35;100.00;98570.86;1764967;80;20990;-66
2022/04/21 11:17:07;;;;;;;17.75;15.00;;;;;;;6.34;100.00;98575.36;1752822;81;21210;-67
2022/04/21 11:19:45;;;;;;;18.75;15.75;;;;;;;6.28;100.00;98571.04;1752614;80;20830;-64
2022/04/21 11:22:13;;;;;;;32.00;23.00;;;;;;;6.25;100.00;98574.21;1765297;81;20892;-66
2022/04/21 11:25:01;;;;;;;37.55;26.87;;;;;;;6.17;100.00;98580.79;1749377;81;21522;-65
2022/04/21 11:27:31;;;;;;;50.10;36.68;;;;;;;6.15;100.00;98582.06;1744433;80;22146;-64
2022/04/21 11:30:03;;;;;;;60.98;39.85;;;;;;;6.12;100.00;98579.37;1741869;80;21144;-66
2022/04/21 11:32:31;;;;;;;69.45;44.67;;;;;;;6.11;100.00;98571.11;1739243;80;20876;-66
2022/04/21 11:35:10;;;;;;;55.23;34.05;;;;;;;6.10;100.00;98574.02;1759152;79;20907;-66
2022/04/21 11:37:54;;;;;;;44.85;30.60;;;;;;;6.04;100.00;98579.02;1739429;81;21027;-65
2022/04/21 11:40:36;;;;;;;42.93;27.55;;;;;;;5.98;100.00;98574.16;1750421;79;20939;-67
2022/04/21 11:43:17;;;;;;;41.05;27.15;;;;;;;5.91;100.00;98583.63;1719684;81;20961;-65
2022/04/21 11:46:02;;;;;;;34.08;22.58;;;;;;;5.82;100.00;98578.44;1745805;80;20964;-67
2022/04/21 11:48:33;;;;;;;26.23;20.48;;;;;;;5.76;100.00;98580.23;1738043;81;21606;-66
2022/04/21 11:51:00;;;;;;;24.15;19.92;;;;;;;5.77;100.00;98585.83;1760985;80;21077;-67
2022/04/21 11:53:33;;;;;;;19.17;14.47;;;;;;;5.84;100.00;98590.19;1750350;80;20952;-66
2022/04/21 11:55:59;;;;;;;18.37;14.95;;;;;;;5.84;100.00;98594.18;1749953;81;21943;-65
2022/04/21 11:58:34;;;;;;;17.23;13.93;;;;;;;5.86;100.00;98596.08;1750385;81;20896;-66
2022/04/21 12:06:52;;;;;;;16.30;14.13;;;;;;;5.92;100.00;98606.53;1756851;81;20880;-66
2022/04/21 12:09:25;;;;;;;15.43;13.22;;;;;;;5.93;100.00;98606.03;1743795;80;21746;-66
2022/04/21 12:11:58;;;;;;;12.45;10.53;;;;;;;5.88;100.00;98607.27;1752180;80;20939;-65
2022/04/21 12:14:25;;;;;;;15.23;13.10;;;;;;;5.82;100.00;98602.41;1756384;80;20859;-66
2022/04/21 12:16:59;;;;;;;15.25;13.13;;;;;;;5.80;100.00;98599.98;1748836;80;20943;-66
2022/04/21 12:19:37;;;;;;;26.15;19.87;;;;;;;5.79;100.00;98608.23;1749351;80;20994;-66